This is the latest recevied weather packets stored in our database for station/object WA7CUG. If no packets are shown the sender has not sent any weather packets the latest 10 day(s).
| Time | Temp. | Humidity | Pressure | Rain* | Wind** | Luminosity | Snow |
|---|---|---|---|---|---|---|---|
| 1777808194 | 8.89° C | 81% | 1016.5 hPa | 0 mm | - | 0 W/m² | - |
| 1777807892 | 8.89° C | 82% | 1016.6 hPa | 0 mm | - | 0 W/m² | - |
| 1777807590 | 8.89° C | 83% | 1016.7 hPa | 0 mm | - | 0 W/m² | - |
| 1777807281 | 9.44° C | 79% | 1016.7 hPa | 0 mm | - | 0 W/m² | - |
| 1777806977 | 8.33° C | 83% | 1016.7 hPa | 0 mm | - | 0 W/m² | - |
| 1777806674 | 8.33° C | 84% | 1016.5 hPa | 0 mm | - | 0 W/m² | - |
| 1777806370 | 8.33° C | 82% | 1016.6 hPa | 0 mm | - | 0 W/m² | - |
| 1777806067 | 8.33° C | 84% | 1016.6 hPa | 0 mm | - | 0 W/m² | - |
| 1777805763 | 9.44° C | 79% | 1016.7 hPa | 0 mm | - | 0 W/m² | - |
| 1777805461 | 8.89° C | 80% | 1016.5 hPa | 0 mm | - | 0 W/m² | - |
| 1777805158 | 8.89° C | 81% | 1016.7 hPa | 0 mm | - | 0 W/m² | - |
| 1777804856 | 10° C | 77% | 1016.7 hPa | 0 mm | - | 0 W/m² | - |
| 1777804553 | 10° C | 78% | 1016.7 hPa | 0 mm | - | 0 W/m² | - |
| 1777804251 | 8.89° C | 81% | 1016.6 hPa | 0 mm | - | 0 W/m² | - |
| 1777803948 | 10° C | 78% | 1016.7 hPa | 0 mm | - | 0 W/m² | - |
| 1777803644 | 10° C | 77% | 1016.5 hPa | 0 mm | - | 0 W/m² | - |
| 1777803340 | 10.56° C | 75% | 1016.4 hPa | 0 mm | - | 0 W/m² | - |
| 1777803038 | 10.56° C | 76% | 1016.4 hPa | 0 mm | - | 0 W/m² | - |
| 1777802735 | 10.56° C | 76% | 1016.5 hPa | 0 mm | - | 0 W/m² | - |
| 1777802433 | 10° C | 77% | 1016.4 hPa | 0 mm | - | 0 W/m² | - |
| 1777802131 | 10.56° C | 76% | 1016.4 hPa | 0 mm | - | 0 W/m² | - |
| 1777801828 | 11.67° C | 71% | 1016.5 hPa | 0 mm | - | 0 W/m² | - |
| 1777801525 | 11.67° C | 73% | 1016.3 hPa | 0 mm | - | 0 W/m² | - |
| 1777801222 | 11.67° C | 69% | 1016.3 hPa | 0 mm | - | 0 W/m² | - |
| 1777800919 | 10.56° C | 74% | 1016.4 hPa | 0 mm | - | 0 W/m² | - |
* Rain latest hour (hover to see other rain measurements)
** Current wind speed in m/s (hover to see current wind gust speed)